4F2 weather

Panola County Sharpe Field
Carthage, Texas, United States

Public forecast

Using degrees Fahrenheit for public forecast. Weather courtesy of forecast.io.

METAR (pilot weather report)

Closest report is Harrison County Airport, 20.7 nm (38.3 km) N. Retrieved 2019/09/15 13:35 UTC (11 minutes ago):

KASL 151335Z AUTO 10SM CLR 25/20 A3011 RMK AO1 T02460200

TAF (pilot weather forecast)

Closest forecast is East Texas Regional Airport, 24.4 nm (45.2 km) WNW. Retrieved 2019/09/15 12:30 UTC (1 hour ago):

TAF KGGG 151127Z 1512/1612 VRB03KT P6SM SKC FM151800 09008KT P6SM SCT060 FM160100 VRB03KT P6SM SKC